New Haven, Connecticut
Current Conditions -  °F | °C
As of 12:53 PM on Tuesday 21 Oct 2014 (Local Time) from KHVN Reporting Station
Broken Clouds Broken Clouds  
Wind Chill: 69°   Ceiling: 25000
Heat Index: 69°   Visibility: 10mi
Dew Point: 54°   Wind: 8mph
Humidity: 58%   Direction: 130°SE
Pressure: 29.89"   Gusts: NA
Location:  41.31°N, 72.92°W
Report Text: KHVN 211653Z 13007KT 10SM FEW050 SCT120 BKN250 21/12 A2989 RMK AO2 SLP120 T02060122
Loading
Personal Weather Stations






























Interactive Weather Map New forecast layout! Learn more

10-Day Weather Forecast

Advertisements
Track Severe Weather on mobile